Magnolia — WDB7135 — position and weather

sailwx.info

Track history (hours):
 
Tides and Currents Weather Stations Pressure Air Temp Water Temp Dewpoint Dewpoint Depression Visibility Wind Speed Wind Dir Waves Ship Positions

Magnolia

Owner: Magnolia Marine Transport Co, Vicksburg, MS. More information available from US FCC via Universal Licensing System and Coast Guard Vessel Documentation Center.

Last reported at 2015-Jun-25 15:04 UTC. Time now 2015-Jul-07 08:54 UTC.
Position N 29°60' W 090°00'.
Warning: this ship's position is 11 days out of date.

Length 33 m; draft 2.7 m.

Type: Towing. MMSI: 366936980.

Date/timePositionNaut miles runAvg speedWind from/ knotsBaromVisibWave heightAir tempDewpointWater temp
2015-Jun-25 15:04N 29°60' W 090°00'0 0.0
2015-Jun-25 10:30N 29°60' W 090°00'2 0.5
2015-Jun-25 06:31N 29°58' W 090°02'0 0.3
2015-Jun-25 05:33N 29°58' W 090°02'0 0.4
2015-Jun-25 04:32N 29°57' W 090°01'1 1.1
2015-Jun-25 03:33N 29°57' W 090°01'1 1.3
2015-Jun-25 02:31N 29°56' W 089°59'0 0.0
2015-Jun-24 23:14N 29°56' W 089°59'0 0.0
2015-Jun-24 21:31N 29°56' W 089°59'0 0.0
2015-Jun-24 20:20N 29°56' W 089°59'20 1.2
2015-Jun-24 03:28N 29°56' W 090°22'  
2015-Jun-17 05:32N 30°20' W 091°14'8 7.8
2015-Jun-17 04:33N 30°28' W 091°12'4 3.9
2015-Jun-17 03:33N 30°31' W 091°15'4 3.9
2015-Jun-17 02:33N 30°34' W 091°16'8 5.9
2015-Jun-17 01:17N 30°41' W 091°21'  
Track history (hours):
 
Tides and Currents Weather Stations Pressure Air Temp Water Temp Dewpoint Dewpoint Depression Visibility Wind Speed Wind Dir Waves Ship Positions

Magnolia

Owner: Magnolia Marine Transport Co, Vicksburg, MS. More information available from US FCC via Universal Licensing System and Coast Guard Vessel Documentation Center.

Last reported at 2015-Jun-25 15:04 UTC. Time now 2015-Jul-07 08:54 UTC.
Position N 29°60' W 090°00'.
Warning: this ship's position is 11 days out of date.

Length 33 m; draft 2.7 m.

Type: Towing. MMSI: 366936980.

Date/timePositionNaut miles runAvg speedWind from/ knotsBaromVisibWave heightAir tempDewpointWater temp
2015-Jun-25 15:04N 29°60' W 090°00'0 0.0
2015-Jun-25 10:30N 29°60' W 090°00'2 0.5
2015-Jun-25 06:31N 29°58' W 090°02'0 0.3
2015-Jun-25 05:33N 29°58' W 090°02'0 0.4
2015-Jun-25 04:32N 29°57' W 090°01'1 1.1
2015-Jun-25 03:33N 29°57' W 090°01'1 1.3
2015-Jun-25 02:31N 29°56' W 089°59'0 0.0
2015-Jun-24 23:14N 29°56' W 089°59'0 0.0
2015-Jun-24 21:31N 29°56' W 089°59'0 0.0
2015-Jun-24 20:20N 29°56' W 089°59'20 1.2
2015-Jun-24 03:28N 29°56' W 090°22'  
2015-Jun-17 05:32N 30°20' W 091°14'8 7.8
2015-Jun-17 04:33N 30°28' W 091°12'4 3.9
2015-Jun-17 03:33N 30°31' W 091°15'4 3.9
2015-Jun-17 02:33N 30°34' W 091°16'8 5.9
2015-Jun-17 01:17N 30°41' W 091°21'  

Dump ship's entire track history